sensor_id;sensor_type;location;lat;lon;timestamp;P1;durP1;ratioP1;P2;durP2;ratioP2
4106;SDS011;21906;50.812;7.132;2024-02-14T00:02:20;2.50;;;2.30;;
4106;SDS011;21906;50.812;7.132;2024-02-14T00:04:46;2.43;;;2.10;;
4106;SDS011;21906;50.812;7.132;2024-02-14T00:07:13;3.33;;;2.50;;
4106;SDS011;21906;50.812;7.132;2024-02-14T00:09:39;3.87;;;2.13;;
4106;SDS011;21906;50.812;7.132;2024-02-14T00:12:05;2.23;;;2.03;;
4106;SDS011;21906;50.812;7.132;2024-02-14T00:14:31;3.03;;;2.70;;
4106;SDS011;21906;50.812;7.132;2024-02-14T00:16:57;3.80;;;2.43;;
4106;SDS011;21906;50.812;7.132;2024-02-14T00:19:24;2.10;;;1.90;;
4106;SDS011;21906;50.812;7.132;2024-02-14T00:21:50;2.13;;;2.00;;
4106;SDS011;21906;50.812;7.132;2024-02-14T00:24:15;2.60;;;2.23;;
4106;SDS011;21906;50.812;7.132;2024-02-14T00:26:42;2.37;;;2.10;;
4106;SDS011;21906;50.812;7.132;2024-02-14T00:29:08;2.30;;;2.10;;
4106;SDS011;21906;50.812;7.132;2024-02-14T00:31:33;1.90;;;1.80;;
4106;SDS011;21906;50.812;7.132;2024-02-14T00:33:59;2.90;;;2.03;;
4106;SDS011;21906;50.812;7.132;2024-02-14T00:36:24;2.20;;;2.00;;
4106;SDS011;21906;50.812;7.132;2024-02-14T00:38:51;3.67;;;1.80;;
4106;SDS011;21906;50.812;7.132;2024-02-14T00:41:16;1.77;;;1.50;;
4106;SDS011;21906;50.812;7.132;2024-02-14T00:43:42;4.20;;;1.90;;
4106;SDS011;21906;50.812;7.132;2024-02-14T00:46:08;1.73;;;1.63;;
4106;SDS011;21906;50.812;7.132;2024-02-14T00:48:33;1.80;;;1.70;;
4106;SDS011;21906;50.812;7.132;2024-02-14T00:50:59;1.50;;;1.40;;
4106;SDS011;21906;50.812;7.132;2024-02-14T00:53:25;2.00;;;1.50;;
4106;SDS011;21906;50.812;7.132;2024-02-14T00:55:50;2.73;;;1.60;;
4106;SDS011;21906;50.812;7.132;2024-02-14T00:58:16;4.30;;;1.50;;
4106;SDS011;21906;50.812;7.132;2024-02-14T01:00:42;2.23;;;1.50;;
4106;SDS011;21906;50.812;7.132;2024-02-14T01:03:08;2.13;;;1.50;;
4106;SDS011;21906;50.812;7.132;2024-02-14T01:05:37;3.20;;;1.40;;
4106;SDS011;21906;50.812;7.132;2024-02-14T01:08:03;1.60;;;1.50;;
4106;SDS011;21906;50.812;7.132;2024-02-14T01:10:29;1.90;;;1.27;;
4106;SDS011;21906;50.812;7.132;2024-02-14T01:12:55;1.60;;;1.33;;
4106;SDS011;21906;50.812;7.132;2024-02-14T01:15:21;4.47;;;1.50;;
4106;SDS011;21906;50.812;7.132;2024-02-14T01:17:47;2.63;;;1.50;;
4106;SDS011;21906;50.812;7.132;2024-02-14T01:20:12;1.40;;;1.30;;
4106;SDS011;21906;50.812;7.132;2024-02-14T01:22:38;1.80;;;1.50;;
4106;SDS011;21906;50.812;7.132;2024-02-14T01:25:03;1.77;;;1.50;;
4106;SDS011;21906;50.812;7.132;2024-02-14T01:27:29;1.20;;;1.10;;
4106;SDS011;21906;50.812;7.132;2024-02-14T01:29:55;3.00;;;1.50;;
4106;SDS011;21906;50.812;7.132;2024-02-14T01:32:22;2.53;;;1.60;;
4106;SDS011;21906;50.812;7.132;2024-02-14T01:34:48;1.70;;;1.37;;
4106;SDS011;21906;50.812;7.132;2024-02-14T01:37:13;1.73;;;1.43;;
4106;SDS011;21906;50.812;7.132;2024-02-14T01:39:39;1.30;;;1.20;;
4106;SDS011;21906;50.812;7.132;2024-02-14T01:42:05;1.87;;;1.37;;
4106;SDS011;21906;50.812;7.132;2024-02-14T01:44:32;3.07;;;1.50;;
4106;SDS011;21906;50.812;7.132;2024-02-14T01:46:59;1.50;;;1.40;;
4106;SDS011;21906;50.812;7.132;2024-02-14T01:49:25;1.40;;;1.30;;
4106;SDS011;21906;50.812;7.132;2024-02-14T01:51:55;2.70;;;1.27;;
4106;SDS011;21906;50.812;7.132;2024-02-14T01:54:24;1.60;;;1.50;;
4106;SDS011;21906;50.812;7.132;2024-02-14T01:56:51;1.60;;;1.50;;
4106;SDS011;21906;50.812;7.132;2024-02-14T01:59:17;1.67;;;1.17;;
4106;SDS011;21906;50.812;7.132;2024-02-14T02:01:44;3.13;;;1.43;;
4106;SDS011;21906;50.812;7.132;2024-02-14T02:04:09;2.60;;;2.10;;
4106;SDS011;21906;50.812;7.132;2024-02-14T02:06:35;2.60;;;1.20;;
4106;SDS011;21906;50.812;7.132;2024-02-14T02:09:02;1.87;;;1.40;;
4106;SDS011;21906;50.812;7.132;2024-02-14T02:11:28;1.80;;;1.70;;
4106;SDS011;21906;50.812;7.132;2024-02-14T02:13:54;1.40;;;1.20;;
4106;SDS011;21906;50.812;7.132;2024-02-14T02:16:20;1.20;;;1.10;;
4106;SDS011;21906;50.812;7.132;2024-02-14T02:18:46;3.60;;;1.40;;
4106;SDS011;21906;50.812;7.132;2024-02-14T02:21:13;3.80;;;1.23;;
4106;SDS011;21906;50.812;7.132;2024-02-14T02:23:39;1.50;;;1.40;;
4106;SDS011;21906;50.812;7.132;2024-02-14T02:26:09;1.40;;;1.30;;
4106;SDS011;21906;50.812;7.132;2024-02-14T02:28:36;1.43;;;1.30;;
4106;SDS011;21906;50.812;7.132;2024-02-14T02:31:02;1.20;;;1.10;;
4106;SDS011;21906;50.812;7.132;2024-02-14T02:33:27;1.37;;;1.27;;
4106;SDS011;21906;50.812;7.132;2024-02-14T02:35:53;1.30;;;1.20;;
4106;SDS011;21906;50.812;7.132;2024-02-14T02:38:19;1.50;;;1.33;;
4106;SDS011;21906;50.812;7.132;2024-02-14T02:40:46;1.40;;;1.30;;
4106;SDS011;21906;50.812;7.132;2024-02-14T02:43:12;1.47;;;1.30;;
4106;SDS011;21906;50.812;7.132;2024-02-14T02:45:38;1.73;;;1.40;;
4106;SDS011;21906;50.812;7.132;2024-02-14T02:48:07;1.40;;;1.30;;
4106;SDS011;21906;50.812;7.132;2024-02-14T02:50:38;2.30;;;1.37;;
4106;SDS011;21906;50.812;7.132;2024-02-14T02:53:04;1.60;;;1.50;;
4106;SDS011;21906;50.812;7.132;2024-02-14T02:55:29;1.40;;;1.30;;
4106;SDS011;21906;50.812;7.132;2024-02-14T02:57:56;1.37;;;1.27;;
4106;SDS011;21906;50.812;7.132;2024-02-14T03:00:23;2.57;;;1.30;;
4106;SDS011;21906;50.812;7.132;2024-02-14T03:02:49;1.20;;;1.10;;
4106;SDS011;21906;50.812;7.132;2024-02-14T03:05:15;2.03;;;1.53;;
4106;SDS011;21906;50.812;7.132;2024-02-14T03:07:44;1.30;;;1.20;;
4106;SDS011;21906;50.812;7.132;2024-02-14T03:10:10;1.73;;;1.30;;
4106;SDS011;21906;50.812;7.132;2024-02-14T03:12:38;1.60;;;1.50;;
4106;SDS011;21906;50.812;7.132;2024-02-14T03:15:04;2.17;;;1.30;;
4106;SDS011;21906;50.812;7.132;2024-02-14T03:17:30;1.60;;;1.50;;
4106;SDS011;21906;50.812;7.132;2024-02-14T03:19:56;1.40;;;1.30;;
4106;SDS011;21906;50.812;7.132;2024-02-14T03:22:22;1.43;;;1.30;;
4106;SDS011;21906;50.812;7.132;2024-02-14T03:24:48;1.40;;;1.30;;
4106;SDS011;21906;50.812;7.132;2024-02-14T03:27:13;1.27;;;1.17;;
4106;SDS011;21906;50.812;7.132;2024-02-14T03:29:39;1.60;;;1.50;;
4106;SDS011;21906;50.812;7.132;2024-02-14T03:32:05;1.30;;;1.20;;
4106;SDS011;21906;50.812;7.132;2024-02-14T03:34:32;1.10;;;1.00;;
4106;SDS011;21906;50.812;7.132;2024-02-14T03:37:00;1.30;;;1.10;;
4106;SDS011;21906;50.812;7.132;2024-02-14T03:39:31;1.60;;;1.50;;
4106;SDS011;21906;50.812;7.132;2024-02-14T03:41:56;1.70;;;1.40;;
4106;SDS011;21906;50.812;7.132;2024-02-14T03:44:22;1.80;;;1.33;;
4106;SDS011;21906;50.812;7.132;2024-02-14T03:46:48;1.90;;;1.37;;
4106;SDS011;21906;50.812;7.132;2024-02-14T03:49:14;1.83;;;1.37;;
4106;SDS011;21906;50.812;7.132;2024-02-14T03:51:40;2.40;;;1.20;;
4106;SDS011;21906;50.812;7.132;2024-02-14T03:54:05;1.80;;;1.37;;
4106;SDS011;21906;50.812;7.132;2024-02-14T03:56:31;1.50;;;1.40;;
4106;SDS011;21906;50.812;7.132;2024-02-14T03:59:02;1.30;;;1.20;;
4106;SDS011;21906;50.812;7.132;2024-02-14T04:01:30;1.20;;;1.10;;
4106;SDS011;21906;50.812;7.132;2024-02-14T04:03:56;1.30;;;1.20;;
4106;SDS011;21906;50.812;7.132;2024-02-14T04:06:22;3.40;;;1.47;;
4106;SDS011;21906;50.812;7.132;2024-02-14T04:08:47;1.30;;;1.20;;
4106;SDS011;21906;50.812;7.132;2024-02-14T04:11:14;1.50;;;1.40;;
4106;SDS011;21906;50.812;7.132;2024-02-14T04:13:39;1.77;;;1.67;;
4106;SDS011;21906;50.812;7.132;2024-02-14T04:16:05;1.97;;;1.40;;
4106;SDS011;21906;50.812;7.132;2024-02-14T04:18:31;1.70;;;1.60;;
4106;SDS011;21906;50.812;7.132;2024-02-14T04:20:57;1.40;;;1.30;;
4106;SDS011;21906;50.812;7.132;2024-02-14T04:23:23;2.60;;;1.50;;
4106;SDS011;21906;50.812;7.132;2024-02-14T04:25:50;1.30;;;1.20;;
4106;SDS011;21906;50.812;7.132;2024-02-14T04:28:16;1.60;;;1.50;;
4106;SDS011;21906;50.812;7.132;2024-02-14T04:30:41;1.30;;;1.20;;
4106;SDS011;21906;50.812;7.132;2024-02-14T04:33:08;1.53;;;1.43;;
4106;SDS011;21906;50.812;7.132;2024-02-14T04:35:34;2.83;;;1.47;;
4106;SDS011;21906;50.812;7.132;2024-02-14T04:38:00;1.70;;;1.20;;
4106;SDS011;21906;50.812;7.132;2024-02-14T04:40:25;1.23;;;1.13;;
4106;SDS011;21906;50.812;7.132;2024-02-14T04:42:51;1.60;;;1.20;;
4106;SDS011;21906;50.812;7.132;2024-02-14T04:45:17;3.00;;;1.53;;
4106;SDS011;21906;50.812;7.132;2024-02-14T04:47:43;1.30;;;1.13;;
4106;SDS011;21906;50.812;7.132;2024-02-14T04:50:09;1.57;;;1.23;;
4106;SDS011;21906;50.812;7.132;2024-02-14T04:52:35;1.30;;;1.20;;
4106;SDS011;21906;50.812;7.132;2024-02-14T04:55:00;1.57;;;1.47;;
4106;SDS011;21906;50.812;7.132;2024-02-14T04:57:26;1.60;;;1.30;;
4106;SDS011;21906;50.812;7.132;2024-02-14T04:59:52;2.23;;;1.20;;
4106;SDS011;21906;50.812;7.132;2024-02-14T05:02:17;1.70;;;1.17;;
4106;SDS011;21906;50.812;7.132;2024-02-14T05:04:43;1.63;;;1.53;;
4106;SDS011;21906;50.812;7.132;2024-02-14T05:07:09;1.27;;;1.17;;
4106;SDS011;21906;50.812;7.132;2024-02-14T05:09:35;1.50;;;1.40;;
4106;SDS011;21906;50.812;7.132;2024-02-14T05:12:00;1.50;;;1.40;;
4106;SDS011;21906;50.812;7.132;2024-02-14T05:14:26;1.47;;;1.30;;
4106;SDS011;21906;50.812;7.132;2024-02-14T05:16:56;1.53;;;1.43;;
4106;SDS011;21906;50.812;7.132;2024-02-14T05:19:21;2.17;;;1.40;;
4106;SDS011;21906;50.812;7.132;2024-02-14T05:21:47;1.43;;;1.33;;
4106;SDS011;21906;50.812;7.132;2024-02-14T05:24:13;1.30;;;1.20;;
4106;SDS011;21906;50.812;7.132;2024-02-14T05:26:39;2.90;;;1.40;;
4106;SDS011;21906;50.812;7.132;2024-02-14T05:29:05;1.50;;;1.40;;
4106;SDS011;21906;50.812;7.132;2024-02-14T05:31:42;1.40;;;1.30;;
4106;SDS011;21906;50.812;7.132;2024-02-14T05:34:09;1.30;;;1.20;;
4106;SDS011;21906;50.812;7.132;2024-02-14T05:36:35;1.67;;;1.50;;
4106;SDS011;21906;50.812;7.132;2024-02-14T05:39:01;1.70;;;1.60;;
4106;SDS011;21906;50.812;7.132;2024-02-14T05:41:27;1.70;;;1.60;;
4106;SDS011;21906;50.812;7.132;2024-02-14T05:43:53;1.50;;;1.40;;
4106;SDS011;21906;50.812;7.132;2024-02-14T05:46:19;1.60;;;1.50;;
4106;SDS011;21906;50.812;7.132;2024-02-14T05:48:46;1.53;;;1.40;;
4106;SDS011;21906;50.812;7.132;2024-02-14T05:51:13;1.70;;;1.60;;
4106;SDS011;21906;50.812;7.132;2024-02-14T05:53:39;1.73;;;1.63;;
4106;SDS011;21906;50.812;7.132;2024-02-14T05:56:04;1.60;;;1.50;;
4106;SDS011;21906;50.812;7.132;2024-02-14T05:58:30;2.17;;;1.60;;
4106;SDS011;21906;50.812;7.132;2024-02-14T06:00:56;1.80;;;1.60;;
4106;SDS011;21906;50.812;7.132;2024-02-14T06:03:22;1.80;;;1.70;;
4106;SDS011;21906;50.812;7.132;2024-02-14T06:05:48;1.70;;;1.60;;
4106;SDS011;21906;50.812;7.132;2024-02-14T06:08:13;3.40;;;1.70;;
4106;SDS011;21906;50.812;7.132;2024-02-14T06:10:39;2.00;;;1.90;;
4106;SDS011;21906;50.812;7.132;2024-02-14T06:13:05;1.70;;;1.60;;
4106;SDS011;21906;50.812;7.132;2024-02-14T06:15:30;1.87;;;1.77;;
4106;SDS011;21906;50.812;7.132;2024-02-14T06:17:56;2.20;;;2.00;;
4106;SDS011;21906;50.812;7.132;2024-02-14T06:20:22;1.83;;;1.73;;
4106;SDS011;21906;50.812;7.132;2024-02-14T06:22:48;3.03;;;1.73;;
4106;SDS011;21906;50.812;7.132;2024-02-14T06:25:14;1.90;;;1.80;;
4106;SDS011;21906;50.812;7.132;2024-02-14T06:27:41;2.50;;;1.90;;
4106;SDS011;21906;50.812;7.132;2024-02-14T06:30:09;1.90;;;1.80;;
4106;SDS011;21906;50.812;7.132;2024-02-14T06:32:36;1.80;;;1.70;;
4106;SDS011;21906;50.812;7.132;2024-02-14T06:35:01;2.20;;;1.80;;
4106;SDS011;21906;50.812;7.132;2024-02-14T06:37:27;1.70;;;1.60;;
4106;SDS011;21906;50.812;7.132;2024-02-14T06:39:53;1.70;;;1.60;;
4106;SDS011;21906;50.812;7.132;2024-02-14T06:42:18;1.90;;;1.70;;
4106;SDS011;21906;50.812;7.132;2024-02-14T06:44:44;1.40;;;1.30;;
4106;SDS011;21906;50.812;7.132;2024-02-14T06:47:10;3.30;;;1.80;;
4106;SDS011;21906;50.812;7.132;2024-02-14T06:49:36;2.27;;;2.07;;
4106;SDS011;21906;50.812;7.132;2024-02-14T06:52:02;1.43;;;1.33;;
4106;SDS011;21906;50.812;7.132;2024-02-14T06:54:28;2.30;;;1.90;;
4106;SDS011;21906;50.812;7.132;2024-02-14T06:56:54;2.53;;;2.20;;
4106;SDS011;21906;50.812;7.132;2024-02-14T06:59:20;1.70;;;1.60;;
4106;SDS011;21906;50.812;7.132;2024-02-14T07:01:45;2.20;;;1.60;;
4106;SDS011;21906;50.812;7.132;2024-02-14T07:04:11;1.77;;;1.67;;
4106;SDS011;21906;50.812;7.132;2024-02-14T07:06:37;1.90;;;1.80;;
4106;SDS011;21906;50.812;7.132;2024-02-14T07:09:02;4.90;;;1.20;;
4106;SDS011;21906;50.812;7.132;2024-02-14T07:11:28;2.53;;;1.60;;
4106;SDS011;21906;50.812;7.132;2024-02-14T07:13:53;1.40;;;1.30;;
4106;SDS011;21906;50.812;7.132;2024-02-14T07:16:19;1.53;;;1.40;;
4106;SDS011;21906;50.812;7.132;2024-02-14T07:18:45;1.73;;;1.20;;
4106;SDS011;21906;50.812;7.132;2024-02-14T07:21:10;1.70;;;1.60;;
4106;SDS011;21906;50.812;7.132;2024-02-14T07:23:36;1.90;;;1.43;;
4106;SDS011;21906;50.812;7.132;2024-02-14T07:26:01;2.17;;;1.50;;
4106;SDS011;21906;50.812;7.132;2024-02-14T07:28:27;1.53;;;1.43;;
4106;SDS011;21906;50.812;7.132;2024-02-14T07:30:53;1.53;;;1.43;;
4106;SDS011;21906;50.812;7.132;2024-02-14T07:33:19;1.50;;;1.40;;
4106;SDS011;21906;50.812;7.132;2024-02-14T07:35:44;1.53;;;1.40;;
4106;SDS011;21906;50.812;7.132;2024-02-14T07:38:12;1.53;;;1.43;;
4106;SDS011;21906;50.812;7.132;2024-02-14T07:40:38;1.70;;;1.60;;
4106;SDS011;21906;50.812;7.132;2024-02-14T07:43:04;1.50;;;1.40;;
4106;SDS011;21906;50.812;7.132;2024-02-14T07:45:31;1.73;;;1.50;;
4106;SDS011;21906;50.812;7.132;2024-02-14T07:47:57;1.47;;;1.37;;
4106;SDS011;21906;50.812;7.132;2024-02-14T07:50:22;1.90;;;1.50;;
4106;SDS011;21906;50.812;7.132;2024-02-14T07:52:48;1.30;;;1.20;;
4106;SDS011;21906;50.812;7.132;2024-02-14T07:55:14;2.07;;;1.40;;
4106;SDS011;21906;50.812;7.132;2024-02-14T07:57:40;3.10;;;1.30;;
4106;SDS011;21906;50.812;7.132;2024-02-14T08:00:09;2.10;;;1.50;;
4106;SDS011;21906;50.812;7.132;2024-02-14T08:02:36;1.77;;;1.20;;
4106;SDS011;21906;50.812;7.132;2024-02-14T08:05:04;1.60;;;1.40;;
4106;SDS011;21906;50.812;7.132;2024-02-14T08:07:30;1.43;;;1.23;;
4106;SDS011;21906;50.812;7.132;2024-02-14T08:09:56;1.60;;;1.50;;
4106;SDS011;21906;50.812;7.132;2024-02-14T08:12:21;1.47;;;1.30;;
4106;SDS011;21906;50.812;7.132;2024-02-14T08:14:49;1.47;;;1.10;;
4106;SDS011;21906;50.812;7.132;2024-02-14T08:17:14;1.40;;;1.30;;
4106;SDS011;21906;50.812;7.132;2024-02-14T08:19:40;1.37;;;1.20;;
4106;SDS011;21906;50.812;7.132;2024-02-14T08:22:06;1.50;;;1.40;;
4106;SDS011;21906;50.812;7.132;2024-02-14T08:24:32;1.30;;;1.20;;
4106;SDS011;21906;50.812;7.132;2024-02-14T08:26:58;1.83;;;1.10;;
4106;SDS011;21906;50.812;7.132;2024-02-14T08:29:24;1.00;;;0.90;;
4106;SDS011;21906;50.812;7.132;2024-02-14T08:31:50;1.30;;;1.20;;
4106;SDS011;21906;50.812;7.132;2024-02-14T08:34:15;2.23;;;1.17;;
4106;SDS011;21906;50.812;7.132;2024-02-14T08:36:42;1.20;;;1.10;;
4106;SDS011;21906;50.812;7.132;2024-02-14T08:39:07;1.37;;;1.20;;
4106;SDS011;21906;50.812;7.132;2024-02-14T08:41:35;1.30;;;1.10;;
4106;SDS011;21906;50.812;7.132;2024-02-14T08:44:06;1.20;;;0.90;;
4106;SDS011;21906;50.812;7.132;2024-02-14T08:46:32;1.20;;;1.10;;
4106;SDS011;21906;50.812;7.132;2024-02-14T08:48:59;1.60;;;1.10;;
4106;SDS011;21906;50.812;7.132;2024-02-14T08:51:27;1.30;;;1.20;;
4106;SDS011;21906;50.812;7.132;2024-02-14T08:53:53;1.10;;;1.00;;
4106;SDS011;21906;50.812;7.132;2024-02-14T08:56:22;1.53;;;1.10;;
4106;SDS011;21906;50.812;7.132;2024-02-14T08:58:48;1.67;;;1.00;;
4106;SDS011;21906;50.812;7.132;2024-02-14T09:01:14;1.30;;;0.97;;
4106;SDS011;21906;50.812;7.132;2024-02-14T09:03:41;1.00;;;0.90;;
4106;SDS011;21906;50.812;7.132;2024-02-14T09:06:15;1.10;;;1.00;;
4106;SDS011;21906;50.812;7.132;2024-02-14T09:08:45;1.10;;;1.00;;
4106;SDS011;21906;50.812;7.132;2024-02-14T09:11:11;1.77;;;1.30;;
4106;SDS011;21906;50.812;7.132;2024-02-14T09:13:37;1.30;;;1.00;;
4106;SDS011;21906;50.812;7.132;2024-02-14T09:16:05;2.17;;;1.13;;
4106;SDS011;21906;50.812;7.132;2024-02-14T09:18:32;1.47;;;1.37;;
4106;SDS011;21906;50.812;7.132;2024-02-14T09:20:58;1.47;;;1.37;;
4106;SDS011;21906;50.812;7.132;2024-02-14T09:23:24;2.70;;;1.77;;
4106;SDS011;21906;50.812;7.132;2024-02-14T09:25:50;2.50;;;2.30;;
4106;SDS011;21906;50.812;7.132;2024-02-14T09:28:16;4.07;;;2.23;;
4106;SDS011;21906;50.812;7.132;2024-02-14T09:30:42;1.73;;;1.57;;
4106;SDS011;21906;50.812;7.132;2024-02-14T09:33:07;1.10;;;1.00;;
4106;SDS011;21906;50.812;7.132;2024-02-14T09:35:34;1.83;;;1.00;;
4106;SDS011;21906;50.812;7.132;2024-02-14T09:38:02;1.20;;;1.10;;
4106;SDS011;21906;50.812;7.132;2024-02-14T09:40:28;1.00;;;0.90;;
4106;SDS011;21906;50.812;7.132;2024-02-14T09:42:55;4.10;;;0.90;;
4106;SDS011;21906;50.812;7.132;2024-02-14T09:45:26;1.00;;;0.90;;
4106;SDS011;21906;50.812;7.132;2024-02-14T09:47:52;1.10;;;1.00;;
4106;SDS011;21906;50.812;7.132;2024-02-14T09:50:19;2.57;;;1.07;;
4106;SDS011;21906;50.812;7.132;2024-02-14T09:52:47;1.40;;;1.10;;
4106;SDS011;21906;50.812;7.132;2024-02-14T09:55:14;1.67;;;1.00;;
4106;SDS011;21906;50.812;7.132;2024-02-14T09:57:41;2.00;;;0.93;;
4106;SDS011;21906;50.812;7.132;2024-02-14T10:00:11;2.70;;;1.17;;
4106;SDS011;21906;50.812;7.132;2024-02-14T10:02:39;1.30;;;0.80;;
4106;SDS011;21906;50.812;7.132;2024-02-14T10:05:07;1.93;;;1.10;;
4106;SDS011;21906;50.812;7.132;2024-02-14T10:07:42;2.07;;;0.93;;
4106;SDS011;21906;50.812;7.132;2024-02-14T10:10:09;1.27;;;0.80;;
4106;SDS011;21906;50.812;7.132;2024-02-14T10:12:35;1.20;;;1.00;;
4106;SDS011;21906;50.812;7.132;2024-02-14T10:15:01;1.17;;;1.00;;
4106;SDS011;21906;50.812;7.132;2024-02-14T10:17:29;1.10;;;1.00;;
4106;SDS011;21906;50.812;7.132;2024-02-14T10:19:58;1.30;;;1.20;;
4106;SDS011;21906;50.812;7.132;2024-02-14T10:22:25;1.47;;;0.80;;
4106;SDS011;21906;50.812;7.132;2024-02-14T10:24:57;1.00;;;0.90;;
4106;SDS011;21906;50.812;7.132;2024-02-14T10:27:23;1.10;;;0.80;;
4106;SDS011;21906;50.812;7.132;2024-02-14T10:29:48;1.10;;;0.90;;
4106;SDS011;21906;50.812;7.132;2024-02-14T10:32:15;2.07;;;1.30;;
4106;SDS011;21906;50.812;7.132;2024-02-14T10:34:41;1.43;;;1.10;;
4106;SDS011;21906;50.812;7.132;2024-02-14T10:37:10;1.00;;;0.90;;
4106;SDS011;21906;50.812;7.132;2024-02-14T10:39:39;1.23;;;1.10;;
4106;SDS011;21906;50.812;7.132;2024-02-14T10:42:07;1.93;;;0.83;;
4106;SDS011;21906;50.812;7.132;2024-02-14T10:44:32;1.60;;;1.00;;
4106;SDS011;21906;50.812;7.132;2024-02-14T10:47:00;2.17;;;1.00;;
4106;SDS011;21906;50.812;7.132;2024-02-14T10:49:32;1.50;;;0.90;;
4106;SDS011;21906;50.812;7.132;2024-02-14T10:51:58;2.17;;;1.00;;
4106;SDS011;21906;50.812;7.132;2024-02-14T10:54:29;1.10;;;0.80;;
4106;SDS011;21906;50.812;7.132;2024-02-14T10:56:55;1.60;;;1.00;;
4106;SDS011;21906;50.812;7.132;2024-02-14T10:59:23;2.47;;;1.00;;
4106;SDS011;21906;50.812;7.132;2024-02-14T11:01:51;2.07;;;1.00;;
4106;SDS011;21906;50.812;7.132;2024-02-14T11:04:17;1.37;;;1.00;;
4106;SDS011;21906;50.812;7.132;2024-02-14T11:06:47;1.80;;;0.90;;
4106;SDS011;21906;50.812;7.132;2024-02-14T11:09:13;2.43;;;1.00;;
4106;SDS011;21906;50.812;7.132;2024-02-14T11:11:44;1.20;;;0.90;;
4106;SDS011;21906;50.812;7.132;2024-02-14T11:14:14;1.53;;;0.90;;
4106;SDS011;21906;50.812;7.132;2024-02-14T11:16:46;1.37;;;0.90;;
4106;SDS011;21906;50.812;7.132;2024-02-14T11:19:13;4.50;;;1.27;;
4106;SDS011;21906;50.812;7.132;2024-02-14T11:24:11;2.20;;;1.10;;
4106;SDS011;21906;50.812;7.132;2024-02-14T11:29:13;2.70;;;0.90;;
4106;SDS011;21906;50.812;7.132;2024-02-14T11:31:41;1.30;;;1.20;;
4106;SDS011;21906;50.812;7.132;2024-02-14T11:34:08;1.07;;;0.97;;
4106;SDS011;21906;50.812;7.132;2024-02-14T11:36:36;1.87;;;1.40;;
4106;SDS011;21906;50.812;7.132;2024-02-14T11:39:05;0.97;;;0.87;;
4106;SDS011;21906;50.812;7.132;2024-02-14T11:41:34;1.57;;;0.97;;
4106;SDS011;21906;50.812;7.132;2024-02-14T11:44:05;1.73;;;0.90;;
4106;SDS011;21906;50.812;7.132;2024-02-14T11:46:34;1.30;;;1.20;;
4106;SDS011;21906;50.812;7.132;2024-02-14T11:49:01;1.00;;;0.90;;
4106;SDS011;21906;50.812;7.132;2024-02-14T11:51:30;1.10;;;0.90;;
4106;SDS011;21906;50.812;7.132;2024-02-14T11:53:57;0.90;;;0.70;;
4106;SDS011;21906;50.812;7.132;2024-02-14T11:56:31;1.00;;;0.80;;
4106;SDS011;21906;50.812;7.132;2024-02-14T11:59:01;1.47;;;0.70;;
4106;SDS011;21906;50.812;7.132;2024-02-14T12:01:31;0.90;;;0.70;;
4106;SDS011;21906;50.812;7.132;2024-02-14T12:04:01;1.10;;;0.90;;
4106;SDS011;21906;50.812;7.132;2024-02-14T12:06:29;1.03;;;0.80;;
4106;SDS011;21906;50.812;7.132;2024-02-14T12:09:03;1.47;;;0.90;;
4106;SDS011;21906;50.812;7.132;2024-02-14T12:11:37;1.40;;;0.90;;
4106;SDS011;21906;50.812;7.132;2024-02-14T12:14:07;3.33;;;0.90;;
4106;SDS011;21906;50.812;7.132;2024-02-14T12:16:34;1.23;;;1.00;;
4106;SDS011;21906;50.812;7.132;2024-02-14T12:19:09;0.87;;;0.80;;
4106;SDS011;21906;50.812;7.132;2024-02-14T12:21:40;0.80;;;0.63;;
4106;SDS011;21906;50.812;7.132;2024-02-14T12:24:07;0.80;;;0.70;;
4106;SDS011;21906;50.812;7.132;2024-02-14T12:26:34;2.33;;;0.80;;
4106;SDS011;21906;50.812;7.132;2024-02-14T12:29:04;1.43;;;0.83;;
4106;SDS011;21906;50.812;7.132;2024-02-14T12:31:32;0.80;;;0.70;;
4106;SDS011;21906;50.812;7.132;2024-02-14T12:33:58;1.00;;;0.80;;
4106;SDS011;21906;50.812;7.132;2024-02-14T12:36:27;1.40;;;0.70;;
4106;SDS011;21906;50.812;7.132;2024-02-14T12:38:56;1.47;;;0.70;;
4106;SDS011;21906;50.812;7.132;2024-02-14T12:41:21;1.27;;;0.70;;
4106;SDS011;21906;50.812;7.132;2024-02-14T12:43:49;0.87;;;0.80;;
4106;SDS011;21906;50.812;7.132;2024-02-14T12:46:15;1.27;;;0.70;;
4106;SDS011;21906;50.812;7.132;2024-02-14T12:48:40;1.40;;;0.70;;
4106;SDS011;21906;50.812;7.132;2024-02-14T12:51:06;1.10;;;1.00;;
4106;SDS011;21906;50.812;7.132;2024-02-14T12:53:33;1.20;;;0.90;;
4106;SDS011;21906;50.812;7.132;2024-02-14T12:55:59;1.00;;;0.90;;
4106;SDS011;21906;50.812;7.132;2024-02-14T12:58:25;1.07;;;0.90;;
4106;SDS011;21906;50.812;7.132;2024-02-14T13:00:51;0.93;;;0.83;;
4106;SDS011;21906;50.812;7.132;2024-02-14T13:03:18;0.80;;;0.60;;
4106;SDS011;21906;50.812;7.132;2024-02-14T13:05:44;1.20;;;0.80;;
4106;SDS011;21906;50.812;7.132;2024-02-14T13:08:12;0.90;;;0.77;;
4106;SDS011;21906;50.812;7.132;2024-02-14T13:10:38;1.20;;;0.80;;
4106;SDS011;21906;50.812;7.132;2024-02-14T13:13:04;0.90;;;0.80;;
4106;SDS011;21906;50.812;7.132;2024-02-14T13:15:29;0.90;;;0.80;;
4106;SDS011;21906;50.812;7.132;2024-02-14T13:17:55;1.07;;;0.97;;
4106;SDS011;21906;50.812;7.132;2024-02-14T13:20:24;1.10;;;1.00;;
4106;SDS011;21906;50.812;7.132;2024-02-14T13:22:50;1.00;;;0.73;;
4106;SDS011;21906;50.812;7.132;2024-02-14T13:25:16;1.00;;;0.83;;
4106;SDS011;21906;50.812;7.132;2024-02-14T13:27:43;0.80;;;0.70;;
4106;SDS011;21906;50.812;7.132;2024-02-14T13:30:09;1.17;;;0.80;;
4106;SDS011;21906;50.812;7.132;2024-02-14T13:32:36;1.20;;;1.10;;
4106;SDS011;21906;50.812;7.132;2024-02-14T13:35:02;1.00;;;0.90;;
4106;SDS011;21906;50.812;7.132;2024-02-14T13:37:28;1.00;;;0.90;;
4106;SDS011;21906;50.812;7.132;2024-02-14T13:39:54;1.20;;;0.87;;
4106;SDS011;21906;50.812;7.132;2024-02-14T13:42:20;0.87;;;0.77;;
4106;SDS011;21906;50.812;7.132;2024-02-14T13:44:47;1.00;;;0.90;;
4106;SDS011;21906;50.812;7.132;2024-02-14T13:47:13;1.20;;;0.87;;
4106;SDS011;21906;50.812;7.132;2024-02-14T13:49:43;1.20;;;1.10;;
4106;SDS011;21906;50.812;7.132;2024-02-14T13:52:09;1.07;;;0.90;;
4106;SDS011;21906;50.812;7.132;2024-02-14T13:54:35;1.30;;;1.20;;
4106;SDS011;21906;50.812;7.132;2024-02-14T13:57:01;1.27;;;1.10;;
4106;SDS011;21906;50.812;7.132;2024-02-14T13:59:27;1.10;;;0.90;;
4106;SDS011;21906;50.812;7.132;2024-02-14T14:01:53;1.20;;;1.10;;
4106;SDS011;21906;50.812;7.132;2024-02-14T14:04:20;1.87;;;1.10;;
4106;SDS011;21906;50.812;7.132;2024-02-14T14:06:48;1.20;;;1.10;;
4106;SDS011;21906;50.812;7.132;2024-02-14T14:09:14;1.87;;;1.10;;
4106;SDS011;21906;50.812;7.132;2024-02-14T14:11:41;1.30;;;1.20;;
4106;SDS011;21906;50.812;7.132;2024-02-14T14:14:06;1.27;;;0.97;;
4106;SDS011;21906;50.812;7.132;2024-02-14T14:16:33;1.20;;;1.10;;
4106;SDS011;21906;50.812;7.132;2024-02-14T14:18:59;2.90;;;1.30;;
4106;SDS011;21906;50.812;7.132;2024-02-14T14:21:25;1.63;;;1.10;;
4106;SDS011;21906;50.812;7.132;2024-02-14T14:23:51;2.13;;;1.20;;
4106;SDS011;21906;50.812;7.132;2024-02-14T14:26:17;1.80;;;1.40;;
4106;SDS011;21906;50.812;7.132;2024-02-14T14:28:43;1.90;;;1.30;;
4106;SDS011;21906;50.812;7.132;2024-02-14T14:31:09;4.43;;;1.50;;
4106;SDS011;21906;50.812;7.132;2024-02-14T14:33:36;1.40;;;1.30;;
4106;SDS011;21906;50.812;7.132;2024-02-14T14:36:03;1.90;;;1.63;;
4106;SDS011;21906;50.812;7.132;2024-02-14T14:38:29;2.27;;;1.60;;
4106;SDS011;21906;50.812;7.132;2024-02-14T14:40:55;2.03;;;1.70;;
4106;SDS011;21906;50.812;7.132;2024-02-14T14:43:21;1.90;;;1.70;;
4106;SDS011;21906;50.812;7.132;2024-02-14T14:45:47;2.30;;;1.50;;
4106;SDS011;21906;50.812;7.132;2024-02-14T14:48:14;1.60;;;1.50;;
4106;SDS011;21906;50.812;7.132;2024-02-14T14:50:43;1.67;;;1.53;;
4106;SDS011;21906;50.812;7.132;2024-02-14T14:53:09;1.53;;;1.43;;
4106;SDS011;21906;50.812;7.132;2024-02-14T14:58:24;4.20;;;1.97;;
4106;SDS011;21906;50.812;7.132;2024-02-14T15:00:57;3.67;;;1.50;;
4106;SDS011;21906;50.812;7.132;2024-02-14T15:03:25;2.90;;;1.70;;
4106;SDS011;21906;50.812;7.132;2024-02-14T15:05:51;2.20;;;2.00;;